sensor_id;sensor_type;location;lat;lon;timestamp;P1;durP1;ratioP1;P2;durP2;ratioP2
55035;SDS011;40936;53.008;6.556;2022-07-01T00:02:15;1999.90;;;986.38;;
55035;SDS011;40936;53.008;6.556;2022-07-01T00:04:41;1999.90;;;976.75;;
55035;SDS011;40936;53.008;6.556;2022-07-01T00:07:06;1999.90;;;993.10;;
55035;SDS011;40936;53.008;6.556;2022-07-01T00:09:32;1999.90;;;999.90;;
55035;SDS011;40936;53.008;6.556;2022-07-01T00:11:57;1999.90;;;980.92;;
55035;SDS011;40936;53.008;6.556;2022-07-01T00:14:23;1999.90;;;999.90;;
55035;SDS011;40936;53.008;6.556;2022-07-01T00:16:49;1999.90;;;999.90;;
55035;SDS011;40936;53.008;6.556;2022-07-01T00:19:16;1999.90;;;999.90;;
55035;SDS011;40936;53.008;6.556;2022-07-01T00:21:42;1999.90;;;999.90;;
55035;SDS011;40936;53.008;6.556;2022-07-01T00:24:07;1999.90;;;999.90;;
55035;SDS011;40936;53.008;6.556;2022-07-01T00:26:33;1999.90;;;999.90;;
55035;SDS011;40936;53.008;6.556;2022-07-01T00:28:59;1999.90;;;999.90;;
55035;SDS011;40936;53.008;6.556;2022-07-01T00:31:24;1999.90;;;999.90;;
55035;SDS011;40936;53.008;6.556;2022-07-01T00:33:50;1999.90;;;999.90;;
55035;SDS011;40936;53.008;6.556;2022-07-01T00:36:16;1999.90;;;999.90;;
55035;SDS011;40936;53.008;6.556;2022-07-01T00:38:41;1999.90;;;999.90;;
55035;SDS011;40936;53.008;6.556;2022-07-01T00:41:07;1999.90;;;999.90;;
55035;SDS011;40936;53.008;6.556;2022-07-01T00:43:36;1999.90;;;999.90;;
55035;SDS011;40936;53.008;6.556;2022-07-01T00:46:03;1999.90;;;999.90;;
55035;SDS011;40936;53.008;6.556;2022-07-01T00:48:30;1999.90;;;999.90;;
55035;SDS011;40936;53.008;6.556;2022-07-01T00:53:23;1999.90;;;999.90;;
55035;SDS011;40936;53.008;6.556;2022-07-01T00:55:49;1999.90;;;999.90;;
55035;SDS011;40936;53.008;6.556;2022-07-01T00:58:15;1999.90;;;999.90;;
55035;SDS011;40936;53.008;6.556;2022-07-01T01:00:41;1999.90;;;999.90;;
55035;SDS011;40936;53.008;6.556;2022-07-01T01:03:08;1999.90;;;999.90;;
55035;SDS011;40936;53.008;6.556;2022-07-01T01:05:36;1999.90;;;999.90;;
55035;SDS011;40936;53.008;6.556;2022-07-01T01:08:03;1999.90;;;999.90;;
55035;SDS011;40936;53.008;6.556;2022-07-01T01:10:30;1999.90;;;999.90;;
55035;SDS011;40936;53.008;6.556;2022-07-01T01:12:56;1999.90;;;999.90;;
55035;SDS011;40936;53.008;6.556;2022-07-01T01:15:22;1999.90;;;999.90;;
55035;SDS011;40936;53.008;6.556;2022-07-01T01:17:49;1999.90;;;999.90;;
55035;SDS011;40936;53.008;6.556;2022-07-01T01:20:18;1999.90;;;999.90;;
55035;SDS011;40936;53.008;6.556;2022-07-01T01:22:45;1999.90;;;999.90;;
55035;SDS011;40936;53.008;6.556;2022-07-01T01:25:15;1999.90;;;999.90;;
55035;SDS011;40936;53.008;6.556;2022-07-01T01:27:41;1999.90;;;999.90;;
55035;SDS011;40936;53.008;6.556;2022-07-01T01:30:08;1999.90;;;999.90;;
55035;SDS011;40936;53.008;6.556;2022-07-01T01:32:37;1999.90;;;999.85;;
55035;SDS011;40936;53.008;6.556;2022-07-01T01:35:04;1999.90;;;971.60;;
55035;SDS011;40936;53.008;6.556;2022-07-01T01:37:30;1999.90;;;999.90;;
55035;SDS011;40936;53.008;6.556;2022-07-01T01:39:56;1999.90;;;999.90;;
55035;SDS011;40936;53.008;6.556;2022-07-01T01:42:23;1999.90;;;999.90;;
55035;SDS011;40936;53.008;6.556;2022-07-01T01:44:49;1999.90;;;999.90;;
55035;SDS011;40936;53.008;6.556;2022-07-01T01:47:15;1999.90;;;999.90;;
55035;SDS011;40936;53.008;6.556;2022-07-01T01:49:41;1999.90;;;999.90;;
55035;SDS011;40936;53.008;6.556;2022-07-01T01:52:07;1999.90;;;975.30;;
55035;SDS011;40936;53.008;6.556;2022-07-01T01:54:33;1999.90;;;938.53;;
55035;SDS011;40936;53.008;6.556;2022-07-01T01:57:01;1999.90;;;999.90;;
55035;SDS011;40936;53.008;6.556;2022-07-01T01:59:30;1999.90;;;999.90;;
55035;SDS011;40936;53.008;6.556;2022-07-01T02:01:56;1999.90;;;985.72;;
55035;SDS011;40936;53.008;6.556;2022-07-01T02:04:22;1999.90;;;999.90;;
55035;SDS011;40936;53.008;6.556;2022-07-01T02:06:51;1999.90;;;999.90;;
55035;SDS011;40936;53.008;6.556;2022-07-01T02:09:17;1999.90;;;999.90;;
55035;SDS011;40936;53.008;6.556;2022-07-01T02:11:43;1999.90;;;999.90;;
55035;SDS011;40936;53.008;6.556;2022-07-01T02:14:09;1999.90;;;999.90;;
55035;SDS011;40936;53.008;6.556;2022-07-01T02:16:34;1999.90;;;999.90;;
55035;SDS011;40936;53.008;6.556;2022-07-01T02:19:00;1999.90;;;999.90;;
55035;SDS011;40936;53.008;6.556;2022-07-01T02:21:26;1999.90;;;999.90;;
55035;SDS011;40936;53.008;6.556;2022-07-01T02:23:53;1999.90;;;999.90;;
55035;SDS011;40936;53.008;6.556;2022-07-01T02:26:19;1999.90;;;999.90;;
55035;SDS011;40936;53.008;6.556;2022-07-01T02:28:45;1999.90;;;999.90;;
55035;SDS011;40936;53.008;6.556;2022-07-01T02:31:11;1999.90;;;999.90;;
55035;SDS011;40936;53.008;6.556;2022-07-01T02:33:36;1999.90;;;999.90;;
55035;SDS011;40936;53.008;6.556;2022-07-01T02:36:02;1999.90;;;999.90;;
55035;SDS011;40936;53.008;6.556;2022-07-01T02:38:28;1999.90;;;999.90;;
55035;SDS011;40936;53.008;6.556;2022-07-01T02:40:54;1999.90;;;999.90;;
55035;SDS011;40936;53.008;6.556;2022-07-01T02:43:19;1999.90;;;999.90;;
55035;SDS011;40936;53.008;6.556;2022-07-01T02:45:45;1999.90;;;999.90;;
55035;SDS011;40936;53.008;6.556;2022-07-01T02:48:11;1999.90;;;999.90;;
55035;SDS011;40936;53.008;6.556;2022-07-01T02:50:37;1999.90;;;999.90;;
55035;SDS011;40936;53.008;6.556;2022-07-01T02:53:02;1999.90;;;999.90;;
55035;SDS011;40936;53.008;6.556;2022-07-01T02:55:28;1999.90;;;999.90;;
55035;SDS011;40936;53.008;6.556;2022-07-01T02:57:54;1999.90;;;999.90;;
55035;SDS011;40936;53.008;6.556;2022-07-01T03:00:20;1999.90;;;999.90;;
55035;SDS011;40936;53.008;6.556;2022-07-01T03:02:47;1999.90;;;999.90;;
55035;SDS011;40936;53.008;6.556;2022-07-01T03:05:13;1999.90;;;999.90;;
55035;SDS011;40936;53.008;6.556;2022-07-01T03:07:39;1999.90;;;999.90;;
55035;SDS011;40936;53.008;6.556;2022-07-01T03:10:06;1999.90;;;999.90;;
55035;SDS011;40936;53.008;6.556;2022-07-01T03:12:32;1999.90;;;999.90;;
55035;SDS011;40936;53.008;6.556;2022-07-01T03:15:06;1999.90;;;999.90;;
55035;SDS011;40936;53.008;6.556;2022-07-01T03:17:35;1999.90;;;999.90;;
55035;SDS011;40936;53.008;6.556;2022-07-01T03:20:03;1999.90;;;999.90;;
55035;SDS011;40936;53.008;6.556;2022-07-01T03:22:31;1999.90;;;999.90;;
55035;SDS011;40936;53.008;6.556;2022-07-01T03:24:57;1999.90;;;999.90;;
55035;SDS011;40936;53.008;6.556;2022-07-01T03:27:23;1999.90;;;999.90;;
55035;SDS011;40936;53.008;6.556;2022-07-01T03:29:50;1999.90;;;999.90;;
55035;SDS011;40936;53.008;6.556;2022-07-01T03:32:16;1999.90;;;999.90;;
55035;SDS011;40936;53.008;6.556;2022-07-01T03:34:43;1999.90;;;964.15;;
55035;SDS011;40936;53.008;6.556;2022-07-01T03:37:15;1999.90;;;999.90;;
55035;SDS011;40936;53.008;6.556;2022-07-01T03:39:42;1999.90;;;999.90;;
55035;SDS011;40936;53.008;6.556;2022-07-01T03:42:08;1999.90;;;999.90;;
55035;SDS011;40936;53.008;6.556;2022-07-01T03:44:35;1999.90;;;999.90;;
55035;SDS011;40936;53.008;6.556;2022-07-01T03:47:02;1999.90;;;999.90;;
55035;SDS011;40936;53.008;6.556;2022-07-01T03:49:30;1999.90;;;999.90;;
55035;SDS011;40936;53.008;6.556;2022-07-01T03:51:56;1999.90;;;999.90;;
55035;SDS011;40936;53.008;6.556;2022-07-01T03:54:22;1999.90;;;999.90;;
55035;SDS011;40936;53.008;6.556;2022-07-01T03:57:17;1999.90;;;999.90;;
55035;SDS011;40936;53.008;6.556;2022-07-01T03:59:43;1893.70;;;990.28;;
55035;SDS011;40936;53.008;6.556;2022-07-01T04:02:08;1999.90;;;999.90;;
55035;SDS011;40936;53.008;6.556;2022-07-01T04:04:35;1999.90;;;999.90;;
55035;SDS011;40936;53.008;6.556;2022-07-01T04:07:01;1999.90;;;999.90;;
55035;SDS011;40936;53.008;6.556;2022-07-01T04:09:29;1984.78;;;999.90;;
55035;SDS011;40936;53.008;6.556;2022-07-01T04:11:55;1999.90;;;999.90;;
55035;SDS011;40936;53.008;6.556;2022-07-01T04:14:22;1999.90;;;999.90;;
55035;SDS011;40936;53.008;6.556;2022-07-01T04:16:51;1999.90;;;999.90;;
55035;SDS011;40936;53.008;6.556;2022-07-01T04:19:18;1999.90;;;999.90;;
55035;SDS011;40936;53.008;6.556;2022-07-01T04:21:44;1999.90;;;999.90;;
55035;SDS011;40936;53.008;6.556;2022-07-01T04:24:29;1999.90;;;999.90;;
55035;SDS011;40936;53.008;6.556;2022-07-01T04:26:57;1999.90;;;999.90;;
55035;SDS011;40936;53.008;6.556;2022-07-01T04:29:23;1999.90;;;999.90;;
55035;SDS011;40936;53.008;6.556;2022-07-01T04:31:49;1999.90;;;999.90;;
55035;SDS011;40936;53.008;6.556;2022-07-01T04:34:15;1999.90;;;999.90;;
55035;SDS011;40936;53.008;6.556;2022-07-01T04:36:41;1999.90;;;999.90;;
55035;SDS011;40936;53.008;6.556;2022-07-01T04:39:07;1999.90;;;999.90;;
55035;SDS011;40936;53.008;6.556;2022-07-01T04:41:33;1999.90;;;999.90;;
55035;SDS011;40936;53.008;6.556;2022-07-01T04:44:18;1999.90;;;999.90;;
55035;SDS011;40936;53.008;6.556;2022-07-01T04:46:44;1999.90;;;999.90;;
55035;SDS011;40936;53.008;6.556;2022-07-01T04:49:10;1999.90;;;999.90;;
55035;SDS011;40936;53.008;6.556;2022-07-01T04:51:35;1999.90;;;999.90;;
55035;SDS011;40936;53.008;6.556;2022-07-01T04:54:02;1999.90;;;999.90;;
55035;SDS011;40936;53.008;6.556;2022-07-01T04:56:28;1999.90;;;999.90;;
55035;SDS011;40936;53.008;6.556;2022-07-01T04:58:54;1999.90;;;999.90;;
55035;SDS011;40936;53.008;6.556;2022-07-01T05:01:21;1999.90;;;999.90;;
55035;SDS011;40936;53.008;6.556;2022-07-01T05:03:47;1999.90;;;999.90;;
55035;SDS011;40936;53.008;6.556;2022-07-01T05:06:13;1609.63;;;995.13;;
55035;SDS011;40936;53.008;6.556;2022-07-01T05:08:39;1999.90;;;999.90;;
55035;SDS011;40936;53.008;6.556;2022-07-01T05:11:04;1999.90;;;999.90;;
55035;SDS011;40936;53.008;6.556;2022-07-01T05:13:31;1999.90;;;999.90;;
55035;SDS011;40936;53.008;6.556;2022-07-01T05:15:58;1999.90;;;999.90;;
55035;SDS011;40936;53.008;6.556;2022-07-01T05:18:24;1999.90;;;999.90;;
55035;SDS011;40936;53.008;6.556;2022-07-01T05:21:08;1999.90;;;999.90;;
55035;SDS011;40936;53.008;6.556;2022-07-01T05:23:53;1999.90;;;999.90;;
55035;SDS011;40936;53.008;6.556;2022-07-01T05:26:18;1999.90;;;999.90;;
55035;SDS011;40936;53.008;6.556;2022-07-01T05:28:45;1999.90;;;999.90;;
55035;SDS011;40936;53.008;6.556;2022-07-01T05:31:11;1999.90;;;999.90;;
55035;SDS011;40936;53.008;6.556;2022-07-01T05:33:37;1999.90;;;999.90;;
55035;SDS011;40936;53.008;6.556;2022-07-01T05:36:03;1999.90;;;999.90;;
55035;SDS011;40936;53.008;6.556;2022-07-01T05:38:29;1907.75;;;999.90;;
55035;SDS011;40936;53.008;6.556;2022-07-01T05:40:55;1990.97;;;999.90;;
55035;SDS011;40936;53.008;6.556;2022-07-01T05:43:21;1995.60;;;999.90;;
55035;SDS011;40936;53.008;6.556;2022-07-01T05:45:46;1999.90;;;999.90;;
55035;SDS011;40936;53.008;6.556;2022-07-01T05:48:12;1999.90;;;999.90;;
55035;SDS011;40936;53.008;6.556;2022-07-01T05:50:39;1999.90;;;999.90;;
55035;SDS011;40936;53.008;6.556;2022-07-01T05:53:05;1999.90;;;999.90;;
55035;SDS011;40936;53.008;6.556;2022-07-01T05:55:31;1999.90;;;999.90;;
55035;SDS011;40936;53.008;6.556;2022-07-01T05:57:57;1999.90;;;999.90;;
55035;SDS011;40936;53.008;6.556;2022-07-01T06:00:23;1999.90;;;999.90;;
55035;SDS011;40936;53.008;6.556;2022-07-01T06:02:48;1999.90;;;999.90;;
55035;SDS011;40936;53.008;6.556;2022-07-01T06:05:14;1999.90;;;999.90;;
55035;SDS011;40936;53.008;6.556;2022-07-01T06:07:40;1999.90;;;999.90;;
55035;SDS011;40936;53.008;6.556;2022-07-01T06:10:07;1934.47;;;999.90;;
55035;SDS011;40936;53.008;6.556;2022-07-01T06:12:35;1936.63;;;999.90;;
55035;SDS011;40936;53.008;6.556;2022-07-01T06:15:01;1689.57;;;999.90;;
55035;SDS011;40936;53.008;6.556;2022-07-01T06:17:27;1633.78;;;999.90;;
55035;SDS011;40936;53.008;6.556;2022-07-01T06:19:53;1999.90;;;999.90;;
55035;SDS011;40936;53.008;6.556;2022-07-01T06:22:19;1993.75;;;999.90;;
55035;SDS011;40936;53.008;6.556;2022-07-01T06:24:46;1999.90;;;999.90;;
55035;SDS011;40936;53.008;6.556;2022-07-01T06:27:14;1817.55;;;999.90;;
55035;SDS011;40936;53.008;6.556;2022-07-01T06:29:40;1999.90;;;999.90;;
55035;SDS011;40936;53.008;6.556;2022-07-01T06:32:06;1999.90;;;999.90;;
55035;SDS011;40936;53.008;6.556;2022-07-01T06:34:32;1999.90;;;999.90;;
55035;SDS011;40936;53.008;6.556;2022-07-01T06:36:59;1999.90;;;999.90;;
55035;SDS011;40936;53.008;6.556;2022-07-01T06:39:25;1927.25;;;999.90;;
55035;SDS011;40936;53.008;6.556;2022-07-01T06:41:51;1999.90;;;999.90;;
55035;SDS011;40936;53.008;6.556;2022-07-01T06:44:18;1999.90;;;999.90;;
55035;SDS011;40936;53.008;6.556;2022-07-01T06:46:43;1999.90;;;999.90;;
55035;SDS011;40936;53.008;6.556;2022-07-01T06:49:09;1999.90;;;999.90;;
55035;SDS011;40936;53.008;6.556;2022-07-01T06:51:35;1999.90;;;999.90;;
55035;SDS011;40936;53.008;6.556;2022-07-01T06:54:01;1999.90;;;999.90;;
55035;SDS011;40936;53.008;6.556;2022-07-01T06:56:27;1999.90;;;999.90;;
55035;SDS011;40936;53.008;6.556;2022-07-01T06:58:53;1999.90;;;999.90;;
55035;SDS011;40936;53.008;6.556;2022-07-01T07:01:20;1999.90;;;999.90;;
55035;SDS011;40936;53.008;6.556;2022-07-01T07:03:46;1999.90;;;999.90;;
55035;SDS011;40936;53.008;6.556;2022-07-01T07:06:11;1999.90;;;999.90;;
55035;SDS011;40936;53.008;6.556;2022-07-01T07:08:37;1999.90;;;999.90;;
55035;SDS011;40936;53.008;6.556;2022-07-01T07:11:05;1999.90;;;999.90;;
55035;SDS011;40936;53.008;6.556;2022-07-01T07:13:34;1999.90;;;999.90;;
55035;SDS011;40936;53.008;6.556;2022-07-01T07:16:00;1999.90;;;999.90;;
55035;SDS011;40936;53.008;6.556;2022-07-01T07:18:26;1999.90;;;999.90;;
55035;SDS011;40936;53.008;6.556;2022-07-01T07:20:52;1999.90;;;999.90;;
55035;SDS011;40936;53.008;6.556;2022-07-01T07:23:18;1999.90;;;999.90;;
55035;SDS011;40936;53.008;6.556;2022-07-01T07:25:43;1999.90;;;999.90;;
55035;SDS011;40936;53.008;6.556;2022-07-01T07:28:09;1999.90;;;999.90;;
55035;SDS011;40936;53.008;6.556;2022-07-01T07:30:35;1999.90;;;999.90;;
55035;SDS011;40936;53.008;6.556;2022-07-01T07:33:01;1999.90;;;999.90;;
55035;SDS011;40936;53.008;6.556;2022-07-01T07:35:27;1999.90;;;999.90;;
55035;SDS011;40936;53.008;6.556;2022-07-01T07:37:52;1999.90;;;999.90;;
55035;SDS011;40936;53.008;6.556;2022-07-01T07:40:18;1999.90;;;999.90;;
55035;SDS011;40936;53.008;6.556;2022-07-01T07:42:45;1999.90;;;999.90;;
55035;SDS011;40936;53.008;6.556;2022-07-01T07:45:11;1999.90;;;999.90;;
55035;SDS011;40936;53.008;6.556;2022-07-01T07:47:40;1999.90;;;999.90;;
55035;SDS011;40936;53.008;6.556;2022-07-01T07:50:09;1999.90;;;999.90;;
55035;SDS011;40936;53.008;6.556;2022-07-01T07:52:35;1999.90;;;999.90;;
55035;SDS011;40936;53.008;6.556;2022-07-01T07:55:00;1999.90;;;999.90;;
55035;SDS011;40936;53.008;6.556;2022-07-01T07:57:27;1971.75;;;999.90;;
55035;SDS011;40936;53.008;6.556;2022-07-01T07:59:53;1999.90;;;999.90;;
55035;SDS011;40936;53.008;6.556;2022-07-01T08:02:18;1307.47;;;985.95;;
55035;SDS011;40936;53.008;6.556;2022-07-01T08:04:44;1999.90;;;999.90;;
55035;SDS011;40936;53.008;6.556;2022-07-01T08:07:10;1767.45;;;982.67;;
55035;SDS011;40936;53.008;6.556;2022-07-01T08:09:35;1999.90;;;999.90;;
55035;SDS011;40936;53.008;6.556;2022-07-01T08:12:02;1999.90;;;998.78;;
55035;SDS011;40936;53.008;6.556;2022-07-01T08:14:29;1999.90;;;999.90;;
55035;SDS011;40936;53.008;6.556;2022-07-01T08:16:54;1695.22;;;473.98;;
55035;SDS011;40936;53.008;6.556;2022-07-01T08:19:20;1999.90;;;999.90;;
55035;SDS011;40936;53.008;6.556;2022-07-01T08:21:46;1999.90;;;837.60;;
55035;SDS011;40936;53.008;6.556;2022-07-01T08:24:12;1999.90;;;999.90;;
55035;SDS011;40936;53.008;6.556;2022-07-01T08:26:38;1999.90;;;999.90;;
55035;SDS011;40936;53.008;6.556;2022-07-01T08:29:03;1515.30;;;999.10;;
55035;SDS011;40936;53.008;6.556;2022-07-01T08:31:29;1988.68;;;999.90;;
55035;SDS011;40936;53.008;6.556;2022-07-01T08:33:56;1808.30;;;999.90;;
55035;SDS011;40936;53.008;6.556;2022-07-01T08:36:22;1449.18;;;999.90;;
55035;SDS011;40936;53.008;6.556;2022-07-01T08:38:48;1585.00;;;999.90;;
55035;SDS011;40936;53.008;6.556;2022-07-01T08:41:14;1063.45;;;955.40;;
55035;SDS011;40936;53.008;6.556;2022-07-01T08:43:41;1028.43;;;918.17;;
55035;SDS011;40936;53.008;6.556;2022-07-01T08:46:07;1029.50;;;920.15;;
55035;SDS011;40936;53.008;6.556;2022-07-01T08:48:33;1288.50;;;999.45;;
55035;SDS011;40936;53.008;6.556;2022-07-01T08:50:59;1426.80;;;951.88;;
55035;SDS011;40936;53.008;6.556;2022-07-01T08:53:29;1561.85;;;999.90;;
55035;SDS011;40936;53.008;6.556;2022-07-01T08:55:56;1140.97;;;923.55;;
55035;SDS011;40936;53.008;6.556;2022-07-01T08:58:41;1370.78;;;981.28;;
55035;SDS011;40936;53.008;6.556;2022-07-01T09:01:17;1148.07;;;957.05;;
55035;SDS011;40936;53.008;6.556;2022-07-01T09:03:48;1161.22;;;978.97;;
55035;SDS011;40936;53.008;6.556;2022-07-01T09:06:22;1127.30;;;935.53;;
55035;SDS011;40936;53.008;6.556;2022-07-01T09:08:53;1243.47;;;967.50;;
55035;SDS011;40936;53.008;6.556;2022-07-01T09:11:20;1334.47;;;999.90;;
55035;SDS011;40936;53.008;6.556;2022-07-01T09:16:55;935.13;;;839.25;;
55035;SDS011;40936;53.008;6.556;2022-07-01T09:19:23;1296.00;;;990.55;;
55035;SDS011;40936;53.008;6.556;2022-07-01T09:21:50;857.97;;;784.80;;
55035;SDS011;40936;53.008;6.556;2022-07-01T09:29:35;842.58;;;770.13;;
55035;SDS011;40936;53.008;6.556;2022-07-01T09:32:06;776.03;;;715.45;;
55035;SDS011;40936;53.008;6.556;2022-07-01T09:34:44;806.33;;;730.95;;
55035;SDS011;40936;53.008;6.556;2022-07-01T09:37:12;872.30;;;787.53;;
55035;SDS011;40936;53.008;6.556;2022-07-01T09:39:47;695.22;;;639.65;;
55035;SDS011;40936;53.008;6.556;2022-07-01T09:42:17;723.80;;;659.03;;
55035;SDS011;40936;53.008;6.556;2022-07-01T09:44:57;805.95;;;726.58;;
55035;SDS011;40936;53.008;6.556;2022-07-01T09:47:24;1606.90;;;902.38;;
55035;SDS011;40936;53.008;6.556;2022-07-01T09:49:51;814.78;;;740.53;;
55035;SDS011;40936;53.008;6.556;2022-07-01T09:52:18;906.03;;;814.63;;
55035;SDS011;40936;53.008;6.556;2022-07-01T09:54:45;1488.97;;;935.88;;
55035;SDS011;40936;53.008;6.556;2022-07-01T09:57:16;885.25;;;799.92;;
55035;SDS011;40936;53.008;6.556;2022-07-01T09:59:43;1529.00;;;900.78;;
55035;SDS011;40936;53.008;6.556;2022-07-01T10:02:10;872.42;;;800.15;;
55035;SDS011;40936;53.008;6.556;2022-07-01T10:04:37;790.80;;;724.25;;
55035;SDS011;40936;53.008;6.556;2022-07-01T10:12:45;665.08;;;614.92;;
55035;SDS011;40936;53.008;6.556;2022-07-01T10:15:32;795.08;;;730.90;;
55035;SDS011;40936;53.008;6.556;2022-07-01T10:17:59;782.40;;;716.35;;
55035;SDS011;40936;53.008;6.556;2022-07-01T10:20:26;872.42;;;797.50;;
55035;SDS011;40936;53.008;6.556;2022-07-01T10:23:06;968.95;;;870.95;;
55035;SDS011;40936;53.008;6.556;2022-07-01T10:36:31;690.65;;;632.95;;
55035;SDS011;40936;53.008;6.556;2022-07-01T10:44:19;874.90;;;800.20;;
55035;SDS011;40936;53.008;6.556;2022-07-01T10:46:49;1011.70;;;915.10;;
55035;SDS011;40936;53.008;6.556;2022-07-01T10:52:01;1043.38;;;934.63;;
55035;SDS011;40936;53.008;6.556;2022-07-01T10:57:44;846.10;;;753.97;;
55035;SDS011;40936;53.008;6.556;2022-07-01T10:59:54;1447.38;;;880.22;;
55035;SDS011;40936;53.008;6.556;2022-07-01T11:05:07;853.85;;;765.60;;
55035;SDS011;40936;53.008;6.556;2022-07-01T11:07:35;1999.90;;;999.90;;
55035;SDS011;40936;53.008;6.556;2022-07-01T11:10:03;1999.90;;;999.90;;
55035;SDS011;40936;53.008;6.556;2022-07-01T11:12:32;351.85;;;319.08;;
55035;SDS011;40936;53.008;6.556;2022-07-01T11:14:58;1999.90;;;999.90;;
55035;SDS011;40936;53.008;6.556;2022-07-01T11:17:26;1731.57;;;960.88;;
55035;SDS011;40936;53.008;6.556;2022-07-01T11:19:54;1372.75;;;695.83;;
55035;SDS011;40936;53.008;6.556;2022-07-01T11:22:31;1999.90;;;999.90;;
55035;SDS011;40936;53.008;6.556;2022-07-01T11:25:02;1999.90;;;999.90;;
55035;SDS011;40936;53.008;6.556;2022-07-01T11:27:30;1999.90;;;999.90;;
55035;SDS011;40936;53.008;6.556;2022-07-01T11:29:58;1999.90;;;999.90;;
55035;SDS011;40936;53.008;6.556;2022-07-01T11:32:30;1999.90;;;999.90;;
55035;SDS011;40936;53.008;6.556;2022-07-01T11:34:58;1999.90;;;999.90;;
55035;SDS011;40936;53.008;6.556;2022-07-01T11:37:30;1999.90;;;999.90;;
55035;SDS011;40936;53.008;6.556;2022-07-01T11:40:16;1999.90;;;999.90;;
55035;SDS011;40936;53.008;6.556;2022-07-01T11:42:43;1999.90;;;999.90;;
55035;SDS011;40936;53.008;6.556;2022-07-01T11:45:21;1999.90;;;999.90;;
55035;SDS011;40936;53.008;6.556;2022-07-01T11:47:49;1999.90;;;999.90;;
55035;SDS011;40936;53.008;6.556;2022-07-01T11:50:15;1999.90;;;999.90;;
55035;SDS011;40936;53.008;6.556;2022-07-01T11:52:41;1555.43;;;791.05;;
55035;SDS011;40936;53.008;6.556;2022-07-01T11:55:07;1415.88;;;834.00;;
55035;SDS011;40936;53.008;6.556;2022-07-01T11:57:33;940.35;;;594.50;;
55035;SDS011;40936;53.008;6.556;2022-07-01T12:00:07;1999.90;;;999.90;;
55035;SDS011;40936;53.008;6.556;2022-07-01T12:02:35;1999.90;;;999.90;;
55035;SDS011;40936;53.008;6.556;2022-07-01T12:05:01;961.83;;;878.40;;
55035;SDS011;40936;53.008;6.556;2022-07-01T12:07:27;982.53;;;898.47;;
55035;SDS011;40936;53.008;6.556;2022-07-01T12:09:54;1631.13;;;924.17;;
55035;SDS011;40936;53.008;6.556;2022-07-01T12:12:20;924.92;;;851.47;;
55035;SDS011;40936;53.008;6.556;2022-07-01T12:14:54;945.30;;;869.63;;
55035;SDS011;40936;53.008;6.556;2022-07-01T12:17:21;910.38;;;837.80;;
55035;SDS011;40936;53.008;6.556;2022-07-01T12:19:48;852.13;;;781.28;;
55035;SDS011;40936;53.008;6.556;2022-07-01T12:22:25;831.85;;;769.20;;
55035;SDS011;40936;53.008;6.556;2022-07-01T12:24:52;1999.90;;;999.90;;
55035;SDS011;40936;53.008;6.556;2022-07-01T12:27:32;820.95;;;757.33;;
55035;SDS011;40936;53.008;6.556;2022-07-01T12:30:00;763.63;;;704.53;;
55035;SDS011;40936;53.008;6.556;2022-07-01T12:32:26;806.83;;;743.85;;
55035;SDS011;40936;53.008;6.556;2022-07-01T12:35:26;1525.97;;;799.60;;
55035;SDS011;40936;53.008;6.556;2022-07-01T12:38:02;1999.90;;;999.90;;
55035;SDS011;40936;53.008;6.556;2022-07-01T12:40:32;1402.32;;;871.70;;
55035;SDS011;40936;53.008;6.556;2022-07-01T12:42:58;1999.90;;;999.90;;
55035;SDS011;40936;53.008;6.556;2022-07-01T12:45:31;1999.90;;;999.90;;
55035;SDS011;40936;53.008;6.556;2022-07-01T12:47:59;1999.90;;;999.90;;
55035;SDS011;40936;53.008;6.556;2022-07-01T12:50:26;1999.90;;;999.90;;
55035;SDS011;40936;53.008;6.556;2022-07-01T12:55:26;1999.90;;;999.90;;
55035;SDS011;40936;53.008;6.556;2022-07-01T12:57:56;1999.90;;;999.90;;
55035;SDS011;40936;53.008;6.556;2022-07-01T13:00:24;1999.90;;;999.90;;
55035;SDS011;40936;53.008;6.556;2022-07-01T13:02:56;1999.90;;;999.90;;
55035;SDS011;40936;53.008;6.556;2022-07-01T13:05:23;1999.90;;;999.90;;
55035;SDS011;40936;53.008;6.556;2022-07-01T13:07:49;1999.90;;;999.90;;
55035;SDS011;40936;53.008;6.556;2022-07-01T13:10:16;865.83;;;575.80;;
55035;SDS011;40936;53.008;6.556;2022-07-01T13:12:43;1999.90;;;999.90;;
55035;SDS011;40936;53.008;6.556;2022-07-01T13:15:10;1102.90;;;556.05;;
55035;SDS011;40936;53.008;6.556;2022-07-01T13:17:37;1999.90;;;999.90;;
55035;SDS011;40936;53.008;6.556;2022-07-01T13:20:03;1999.90;;;999.90;;
55035;SDS011;40936;53.008;6.556;2022-07-01T13:22:29;1999.90;;;999.90;;
55035;SDS011;40936;53.008;6.556;2022-07-01T13:24:55;1999.90;;;999.90;;
55035;SDS011;40936;53.008;6.556;2022-07-01T13:27:20;1999.90;;;999.90;;
55035;SDS011;40936;53.008;6.556;2022-07-01T13:29:48;1999.90;;;999.90;;
55035;SDS011;40936;53.008;6.556;2022-07-01T13:32:14;1999.90;;;999.90;;
55035;SDS011;40936;53.008;6.556;2022-07-01T13:34:40;1999.90;;;999.90;;
55035;SDS011;40936;53.008;6.556;2022-07-01T13:37:06;1999.90;;;999.90;;
55035;SDS011;40936;53.008;6.556;2022-07-01T13:39:32;1999.90;;;999.90;;
55035;SDS011;40936;53.008;6.556;2022-07-01T13:41:58;1999.90;;;999.90;;
55035;SDS011;40936;53.008;6.556;2022-07-01T13:44:23;375.33;;;138.30;;
55035;SDS011;40936;53.008;6.556;2022-07-01T13:46:49;1294.70;;;740.47;;
55035;SDS011;40936;53.008;6.556;2022-07-01T13:49:15;1999.90;;;999.90;;
55035;SDS011;40936;53.008;6.556;2022-07-01T13:51:41;1999.90;;;999.90;;
55035;SDS011;40936;53.008;6.556;2022-07-01T13:54:07;1561.97;;;796.58;;
55035;SDS011;40936;53.008;6.556;2022-07-01T13:56:33;1281.03;;;722.47;;
55035;SDS011;40936;53.008;6.556;2022-07-01T13:58:58;1669.68;;;901.42;;
55035;SDS011;40936;53.008;6.556;2022-07-01T14:01:24;941.60;;;840.90;;
55035;SDS011;40936;53.008;6.556;2022-07-01T14:03:51;707.72;;;638.38;;
55035;SDS011;40936;53.008;6.556;2022-07-01T14:06:17;665.97;;;593.83;;
55035;SDS011;40936;53.008;6.556;2022-07-01T14:08:43;1430.53;;;885.17;;
55035;SDS011;40936;53.008;6.556;2022-07-01T14:11:09;632.85;;;525.63;;
55035;SDS011;40936;53.008;6.556;2022-07-01T14:13:35;1999.90;;;999.90;;
55035;SDS011;40936;53.008;6.556;2022-07-01T14:16:01;1595.30;;;799.20;;
55035;SDS011;40936;53.008;6.556;2022-07-01T14:18:27;1999.90;;;999.90;;
55035;SDS011;40936;53.008;6.556;2022-07-01T14:20:53;1999.90;;;999.90;;
55035;SDS011;40936;53.008;6.556;2022-07-01T14:23:19;1999.90;;;999.90;;
55035;SDS011;40936;53.008;6.556;2022-07-01T14:25:44;1442.50;;;894.60;;
55035;SDS011;40936;53.008;6.556;2022-07-01T14:28:11;1999.90;;;999.90;;
55035;SDS011;40936;53.008;6.556;2022-07-01T14:30:37;1999.90;;;999.90;;
55035;SDS011;40936;53.008;6.556;2022-07-01T14:33:03;1999.90;;;999.90;;